createdAt,value
2017-12-28T00:02:24.166Z,5.88
2017-12-28T00:04:53.333Z,5.73
2017-12-28T00:07:21.662Z,5.79
2017-12-28T00:09:49.993Z,5.77
2017-12-28T00:12:18.409Z,5.73
2017-12-28T00:14:46.737Z,5.80
2017-12-28T00:17:15.049Z,5.73
2017-12-28T00:19:43.513Z,5.79
2017-12-28T00:22:11.822Z,5.83
2017-12-28T00:24:40.157Z,5.83
2017-12-28T00:27:08.472Z,5.81
2017-12-28T00:29:36.840Z,5.74
2017-12-28T00:32:05.149Z,5.76
2017-12-28T00:34:33.481Z,5.67
2017-12-28T00:37:01.794Z,5.62
2017-12-28T00:39:30.117Z,5.72
2017-12-28T00:41:58.433Z,5.75
2017-12-28T00:44:26.765Z,5.61
2017-12-28T00:46:55.165Z,5.71
2017-12-28T00:49:23.498Z,5.61
2017-12-28T00:51:51.860Z,5.68
2017-12-28T00:54:20.226Z,5.80
2017-12-28T00:56:48.573Z,5.78
2017-12-28T00:59:16.905Z,5.70
2017-12-28T01:01:45.225Z,5.74
2017-12-28T01:04:13.560Z,5.66
2017-12-28T01:06:41.961Z,5.74
2017-12-28T01:09:10.360Z,5.78
2017-12-28T01:11:38.673Z,5.71
2017-12-28T01:14:07.030Z,5.83
2017-12-28T01:16:35.342Z,5.82
2017-12-28T01:19:03.753Z,5.64
2017-12-28T01:21:32.293Z,5.46
2017-12-28T01:24:00.757Z,5.42
2017-12-28T01:26:29.071Z,5.38
2017-12-28T01:28:57.401Z,5.24
2017-12-28T01:31:25.714Z,5.18
2017-12-28T01:33:54.038Z,5.14
2017-12-28T01:36:22.397Z,5.09
2017-12-28T01:38:50.777Z,5.03
2017-12-28T01:41:19.152Z,5.02
2017-12-28T01:43:47.486Z,5.05
2017-12-28T01:46:15.805Z,5.11
2017-12-28T01:48:44.108Z,5.00
2017-12-28T01:51:12.567Z,5.05
2017-12-28T01:53:40.877Z,5.09
2017-12-28T01:56:09.262Z,5.14
2017-12-28T01:58:37.597Z,5.11
2017-12-28T02:01:05.922Z,5.07
2017-12-28T02:03:34.246Z,5.08
2017-12-28T02:06:02.621Z,4.98
2017-12-28T02:08:30.998Z,5.03
2017-12-28T02:10:59.373Z,5.08
2017-12-28T02:13:27.753Z,5.14
2017-12-28T02:15:56.085Z,5.00
2017-12-28T02:18:24.390Z,5.04
2017-12-28T02:20:52.718Z,5.07
2017-12-28T02:23:21.157Z,5.05
2017-12-28T02:25:49.490Z,5.14
2017-12-28T02:28:17.810Z,5.16
2017-12-28T02:30:46.164Z,5.10
2017-12-28T02:33:14.561Z,5.21
2017-12-28T02:35:42.894Z,5.12
2017-12-28T02:38:11.197Z,5.21
2017-12-28T02:40:39.630Z,5.15
2017-12-28T02:43:07.989Z,5.12
2017-12-28T02:45:36.342Z,5.06
2017-12-28T02:48:04.725Z,4.99
2017-12-28T02:50:33.054Z,5.05
2017-12-28T02:53:01.359Z,4.98
2017-12-28T02:55:29.681Z,4.78
2017-12-28T02:57:57.985Z,4.87
2017-12-28T03:00:26.405Z,4.84
2017-12-28T03:02:54.722Z,4.84
2017-12-28T03:05:23.049Z,4.75
2017-12-28T03:07:51.349Z,4.68
2017-12-28T03:10:19.681Z,4.62
2017-12-28T03:12:47.985Z,4.72
2017-12-28T03:15:16.669Z,4.69
2017-12-28T03:17:45.081Z,4.69
2017-12-28T03:20:13.436Z,4.64
2017-12-28T03:22:41.737Z,4.62
2017-12-28T03:25:10.070Z,4.57
2017-12-28T03:27:38.373Z,4.62
2017-12-28T03:30:06.733Z,4.59
2017-12-28T03:32:35.151Z,4.67
2017-12-28T03:35:03.487Z,4.57
2017-12-28T03:37:31.794Z,4.55
2017-12-28T03:40:00.142Z,4.59
2017-12-28T03:42:28.449Z,4.62
2017-12-28T03:44:56.779Z,4.54
2017-12-28T03:47:25.169Z,4.35
2017-12-28T03:49:53.473Z,4.35
2017-12-28T03:52:21.801Z,4.39
2017-12-28T03:54:50.110Z,4.28
2017-12-28T03:57:18.448Z,4.22
2017-12-28T03:59:46.753Z,4.27
2017-12-28T04:02:15.113Z,4.36
2017-12-28T04:04:43.453Z,4.36
2017-12-28T04:07:11.785Z,4.47
2017-12-28T04:09:40.094Z,4.37
2017-12-28T04:12:08.423Z,4.48
2017-12-28T04:14:36.733Z,4.40
2017-12-28T04:17:05.057Z,4.33
2017-12-28T04:19:33.361Z,4.31
2017-12-28T04:22:01.734Z,4.40
2017-12-28T04:24:30.046Z,4.45
2017-12-28T04:26:58.425Z,4.48
2017-12-28T04:29:26.735Z,4.52
2017-12-28T04:31:55.117Z,4.28
2017-12-28T04:34:23.515Z,4.31
2017-12-28T04:36:51.889Z,4.22
2017-12-28T04:39:20.271Z,4.36
2017-12-28T04:41:48.618Z,4.27
2017-12-28T04:44:16.957Z,4.28
2017-12-28T04:46:45.301Z,4.23
2017-12-28T04:49:13.609Z,4.26
2017-12-28T04:51:41.938Z,4.35
2017-12-28T04:54:10.332Z,4.34
2017-12-28T04:56:38.710Z,4.25
2017-12-28T04:59:07.059Z,4.21
2017-12-28T05:01:35.440Z,4.20
2017-12-28T05:04:03.742Z,4.20
2017-12-28T05:06:32.131Z,4.16
2017-12-28T05:09:00.485Z,4.21
2017-12-28T05:11:28.909Z,4.16
2017-12-28T05:13:57.246Z,4.09
2017-12-28T05:16:25.573Z,4.12
2017-12-28T05:18:53.876Z,4.11
2017-12-28T05:21:22.311Z,4.17
2017-12-28T05:23:50.646Z,4.23
2017-12-28T05:26:19.030Z,4.24
2017-12-28T05:28:47.409Z,4.20
2017-12-28T05:31:15.777Z,4.24
2017-12-28T05:33:44.121Z,4.29
2017-12-28T05:36:12.473Z,4.28
2017-12-28T05:38:40.786Z,4.35
2017-12-28T05:41:09.193Z,4.31
2017-12-28T05:43:37.560Z,4.38
2017-12-28T05:46:05.899Z,4.38
2017-12-28T05:48:34.209Z,4.31
2017-12-28T05:51:02.581Z,4.26
2017-12-28T05:53:30.941Z,4.24
2017-12-28T05:55:59.261Z,4.31
2017-12-28T05:58:27.623Z,4.26
2017-12-28T06:00:55.937Z,4.29
2017-12-28T06:03:24.268Z,4.26
2017-12-28T06:05:52.577Z,4.30
2017-12-28T06:08:20.941Z,4.30
2017-12-28T06:10:49.298Z,4.35
2017-12-28T06:13:17.627Z,4.32
2017-12-28T06:15:45.933Z,4.34
2017-12-28T06:18:14.272Z,4.35
2017-12-28T06:20:42.618Z,4.42
2017-12-28T06:23:10.950Z,4.37
2017-12-28T06:25:39.253Z,4.32
2017-12-28T06:28:07.617Z,4.33
2017-12-28T06:30:35.933Z,4.29
2017-12-28T06:33:04.301Z,4.28
2017-12-28T06:35:32.634Z,4.32
2017-12-28T06:38:00.953Z,4.29
2017-12-28T06:40:29.261Z,4.21
2017-12-28T06:42:57.594Z,4.25
2017-12-28T06:45:25.909Z,4.22
2017-12-28T06:47:54.241Z,4.15
2017-12-28T06:50:22.629Z,4.18
2017-12-28T06:52:51.006Z,4.14
2017-12-28T06:55:19.434Z,4.17
2017-12-28T06:57:47.756Z,4.09
2017-12-28T07:00:16.066Z,4.08
2017-12-28T07:02:44.805Z,4.11
2017-12-28T07:05:13.230Z,4.05
2017-12-28T07:07:41.571Z,4.05
2017-12-28T07:10:09.877Z,4.04
2017-12-28T07:12:38.209Z,4.31
2017-12-28T07:15:06.919Z,4.35
2017-12-28T07:17:35.253Z,4.22
2017-12-28T07:20:03.574Z,4.12
2017-12-28T07:22:32.046Z,4.18
2017-12-28T07:25:00.400Z,4.15
2017-12-28T07:27:28.760Z,4.12
2017-12-28T07:29:57.041Z,4.03
2017-12-28T07:32:25.384Z,4.00
2017-12-28T07:34:53.709Z,3.94
2017-12-28T07:37:22.039Z,3.94
2017-12-28T07:39:50.535Z,3.95
2017-12-28T07:42:18.911Z,3.91
2017-12-28T07:44:47.297Z,3.95
2017-12-28T07:47:15.678Z,3.95
2017-12-28T07:49:44.234Z,4.00
2017-12-28T07:52:12.688Z,3.91
2017-12-28T07:54:41.010Z,3.89
2017-12-28T07:57:09.323Z,3.92
2017-12-28T07:59:37.796Z,3.90
2017-12-28T08:02:06.190Z,3.97
2017-12-28T08:04:34.529Z,3.94
2017-12-28T08:07:02.859Z,3.92
2017-12-28T08:09:31.194Z,4.01
2017-12-28T08:11:59.803Z,3.96
2017-12-28T08:14:28.260Z,4.02
2017-12-28T08:16:56.593Z,3.97
2017-12-28T08:19:24.925Z,3.98
2017-12-28T08:21:53.243Z,4.00
2017-12-28T08:24:21.578Z,3.95
2017-12-28T08:26:50.041Z,4.09
2017-12-28T08:29:18.462Z,4.10
2017-12-28T08:31:46.773Z,4.17
2017-12-28T08:34:15.144Z,4.09
2017-12-28T08:36:43.498Z,4.14
2017-12-28T08:39:12.032Z,4.19
2017-12-28T08:41:40.469Z,4.24
2017-12-28T08:44:08.816Z,4.22
2017-12-28T08:46:37.126Z,4.25
2017-12-28T08:49:05.716Z,4.35
2017-12-28T08:51:34.093Z,4.34
2017-12-28T08:54:02.426Z,4.40
2017-12-28T08:56:30.899Z,4.40
2017-12-28T08:58:59.293Z,4.43
2017-12-28T09:01:27.769Z,4.51
2017-12-28T09:03:56.189Z,4.46
2017-12-28T09:06:24.511Z,4.51
2017-12-28T09:08:52.849Z,4.49
2017-12-28T09:11:21.171Z,4.53
2017-12-28T09:13:49.722Z,4.62
2017-12-28T09:16:18.098Z,4.61
2017-12-28T09:18:46.448Z,4.60
2017-12-28T09:21:14.756Z,4.63
2017-12-28T09:23:43.189Z,4.68
2017-12-28T09:26:11.796Z,4.63
2017-12-28T09:28:40.216Z,4.57
2017-12-28T09:31:08.551Z,4.62
2017-12-28T09:33:36.886Z,4.64
2017-12-28T09:36:05.396Z,4.61
2017-12-28T09:38:33.810Z,4.64
2017-12-28T09:41:02.125Z,4.77
2017-12-28T09:43:30.470Z,4.82
2017-12-28T09:45:58.782Z,4.87
2017-12-28T09:48:27.126Z,4.86
2017-12-28T09:50:55.510Z,4.89
2017-12-28T09:53:26.213Z,4.92
2017-12-28T09:55:54.678Z,4.91
2017-12-28T09:58:23.057Z,4.87
2017-12-28T10:00:51.357Z,4.92
2017-12-28T10:03:20.202Z,4.95
2017-12-28T10:05:48.578Z,4.99
2017-12-28T10:08:16.949Z,4.97
2017-12-28T10:10:45.358Z,5.01
2017-12-28T10:13:13.693Z,4.97
2017-12-28T10:15:43.111Z,5.00
2017-12-28T10:18:11.492Z,5.04
2017-12-28T10:20:39.907Z,5.09
2017-12-28T10:23:09.002Z,5.17
2017-12-28T10:25:37.349Z,5.09
2017-12-28T10:28:05.679Z,5.12
2017-12-28T10:30:34.034Z,5.06
2017-12-28T10:33:02.372Z,5.13
2017-12-28T10:35:30.733Z,5.08
2017-12-28T10:37:59.058Z,5.09
2017-12-28T10:40:27.442Z,5.20
2017-12-28T10:42:55.769Z,5.21
2017-12-28T10:45:25.107Z,5.24
2017-12-28T10:47:53.468Z,5.24
2017-12-28T10:50:21.810Z,5.32
2017-12-28T10:52:50.132Z,5.32
2017-12-28T10:55:19.463Z,5.34
2017-12-28T10:57:47.822Z,5.29
2017-12-28T11:00:16.563Z,5.32
2017-12-28T11:02:44.971Z,5.35
2017-12-28T11:05:13.294Z,5.24
2017-12-28T11:07:41.615Z,5.22
2017-12-28T11:10:09.965Z,5.23
2017-12-28T11:12:38.286Z,5.22
2017-12-28T11:15:06.626Z,5.22
2017-12-28T11:17:34.949Z,5.15
2017-12-28T11:20:03.353Z,5.19
2017-12-28T11:22:31.666Z,5.15
2017-12-28T11:25:00.012Z,5.10
2017-12-28T11:27:28.326Z,5.16
2017-12-28T11:29:56.670Z,5.23
2017-12-28T11:32:24.986Z,5.17
2017-12-28T11:34:53.353Z,5.24
2017-12-28T11:37:21.666Z,5.22
2017-12-28T11:39:50.045Z,5.26
2017-12-28T11:42:18.366Z,5.32
2017-12-28T11:44:46.703Z,5.27
2017-12-28T11:47:15.038Z,5.23
2017-12-28T11:49:43.386Z,5.25
2017-12-28T11:52:17.239Z,5.31
2017-12-28T11:54:45.577Z,5.31
2017-12-28T11:57:13.916Z,5.38
2017-12-28T11:59:47.833Z,5.35
2017-12-28T12:02:21.655Z,5.33
2017-12-28T12:04:50.008Z,5.37
2017-12-28T12:07:18.331Z,5.45
2017-12-28T12:09:49.405Z,5.35
2017-12-28T12:12:17.744Z,5.42
2017-12-28T12:14:46.107Z,5.42
2017-12-28T12:17:14.471Z,5.50
2017-12-28T12:19:42.835Z,5.50
2017-12-28T12:22:11.191Z,5.51
2017-12-28T12:24:40.339Z,5.55
2017-12-28T12:27:08.730Z,5.50
2017-12-28T12:29:37.092Z,5.53
2017-12-28T12:32:05.462Z,5.60
2017-12-28T12:34:33.809Z,5.58
2017-12-28T12:37:02.139Z,5.56
2017-12-28T12:39:30.458Z,5.67
2017-12-28T12:41:58.807Z,5.66
2017-12-28T12:44:27.263Z,5.64
2017-12-28T12:46:55.603Z,5.70
2017-12-28T12:49:23.930Z,5.72
2017-12-28T12:51:52.291Z,5.69
2017-12-28T12:54:20.603Z,5.67
2017-12-28T12:56:48.997Z,5.68
2017-12-28T12:59:17.326Z,5.77
2017-12-28T13:01:45.679Z,5.62
2017-12-28T13:04:14.950Z,5.59
2017-12-28T13:06:43.305Z,5.62
2017-12-28T13:09:11.702Z,5.62
2017-12-28T13:11:40.081Z,5.57
2017-12-28T13:14:08.411Z,5.60
2017-12-28T13:16:36.787Z,5.54
2017-12-28T13:19:05.107Z,5.56
2017-12-28T13:21:33.454Z,5.55
2017-12-28T13:24:01.771Z,5.55
2017-12-28T13:26:30.115Z,5.55
2017-12-28T13:28:58.444Z,5.46
2017-12-28T13:31:27.130Z,5.42
2017-12-28T13:33:55.488Z,5.45
2017-12-28T13:36:23.830Z,5.48
2017-12-28T13:38:52.181Z,5.53
2017-12-28T13:41:20.517Z,5.54
2017-12-28T13:43:48.837Z,5.61
2017-12-28T13:46:17.174Z,5.62
2017-12-28T13:48:45.500Z,5.60
2017-12-28T13:51:13.849Z,5.63
2017-12-28T13:53:42.174Z,5.55
2017-12-28T13:56:10.511Z,5.43
2017-12-28T13:58:38.854Z,5.32
2017-12-28T14:01:07.203Z,5.42
2017-12-28T14:03:35.532Z,5.48
2017-12-28T14:06:03.865Z,5.51
2017-12-28T14:08:32.186Z,5.44
2017-12-28T14:11:00.522Z,5.34
2017-12-28T14:13:28.836Z,5.32
